Mbuguni, Tanzania

10:43 AM EAT on April 29, 2017 (GMT +0300)
Muriet-Terrat Road to Mkonoo | | Change Station

Elev 4386 ft 3.45 °S, 36.65 °E | Updated 7 minutes ago

Mostly Cloudy
Mostly Cloudy
65.5 °F
Feels Like 65.5 °F
N
5.0
Wind Variable Wind from NE
Gusts 9.9 mph

Today
High -- | Low -- °F
--% Chance of Precip.
Yesterday
High -- | Low -- °F
Precip. -- in
Pressure 30.15 in
Visibility 3.7 miles
Clouds Scattered Clouds 400 ft
Overcast 1600 ft
Dew Point 64 °F
Humidity 96%
Rainfall 0.02 in
Snow Depth Not available.
6:30 AM 6:29 PM
Waxing Crescent, 12% visible
METAR HTAR 290700Z 11006KT 6000 VCDZ SCT004 OVC016 18/18 Q1021
Pressure 30.15 in
Visibility 3.7 miles
Clouds Scattered Clouds 400 ft
Overcast 1600 ft
Dew Point 64 °F
Humidity 96%
Rainfall 0.02 in
Snow Depth Not available.
6:30 AM 6:29 PM
Waxing Crescent, 12% visible
METAR HTAR 290700Z 11006KT 6000 VCDZ SCT004 OVC016 18/18 Q1021

Get Severe Weather Alerts

Thanks for signing up!

Be on the lookout for a verification email in your inbox.

You'll start receiving the daily forecast at 8 AM.

×

10-Day Weather Forecast

No radar image for this location.
×

Almanac

Astronomy

Apr. 29, 2017 Rise Set
Actual Time
Civil Twilight
Nautical Twilight
Astronomical Twilight
Moon
Length of Visible Light
Length of Day
Tomorrow will be .
, % of the Moon is Illuminated

Today's Extremes

Country Highs Country Lows

Community

WunderPhotos

WunderBlog® & News

Nearby

Air Quality

  Air Quality AQ Index Pollutant
Not available.

Snow Depth

Station Depth Elevation

Earthquake Activity

City Distance Mag. Time & Date
Minimum magnitude displayed is 2.5.

Coastal Water Temperatures

Place Temperature

Stations

Nearby Weather Stations

Station Location Temp. Windchill Dew Point Humidity Wind Precip. Elev Updated Type